createdAt,value
2017-06-27T00:01:31.904Z,7.60
2017-06-27T00:03:59.270Z,7.17
2017-06-27T00:06:26.612Z,7.73
2017-06-27T00:08:54.005Z,7.90
2017-06-27T00:11:21.307Z,8.53
2017-06-27T00:13:48.636Z,8.90
2017-06-27T00:16:16.002Z,8.60
2017-06-27T00:18:43.465Z,7.50
2017-06-27T00:21:10.814Z,8.83
2017-06-27T00:23:38.296Z,8.10
2017-06-27T00:26:05.630Z,8.80
2017-06-27T00:28:32.984Z,8.90
2017-06-27T00:31:00.366Z,9.43
2017-06-27T00:33:27.737Z,9.03
2017-06-27T00:35:55.054Z,9.60
2017-06-27T00:38:22.501Z,9.17
2017-06-27T00:40:50.141Z,9.23
2017-06-27T00:43:17.469Z,8.70
2017-06-27T00:45:44.863Z,10.77
2017-06-27T00:48:12.256Z,10.60
2017-06-27T00:50:39.641Z,9.47
2017-06-27T00:53:07.039Z,12.80
2017-06-27T00:55:34.454Z,8.80
2017-06-27T00:58:01.821Z,9.10
2017-06-27T01:00:29.171Z,8.47
2017-06-27T01:02:56.549Z,7.97
2017-06-27T01:05:23.942Z,8.10
2017-06-27T01:07:51.386Z,7.90
2017-06-27T01:10:18.709Z,7.60
2017-06-27T01:12:46.207Z,7.03
2017-06-27T01:15:13.767Z,7.37
2017-06-27T01:17:41.223Z,7.30
2017-06-27T01:20:08.542Z,7.23
2017-06-27T01:22:36.010Z,7.33
2017-06-27T01:25:03.384Z,7.50
2017-06-27T01:27:30.697Z,7.57
2017-06-27T01:29:58.113Z,6.73
2017-06-27T01:32:25.435Z,6.83
2017-06-27T01:34:52.855Z,7.97
2017-06-27T01:37:20.216Z,7.40
2017-06-27T01:39:47.592Z,8.80
2017-06-27T01:42:14.989Z,8.30
2017-06-27T01:44:42.401Z,8.93
2017-06-27T01:47:09.798Z,8.50
2017-06-27T01:49:37.189Z,8.33
2017-06-27T01:52:04.594Z,8.63
2017-06-27T01:54:31.944Z,8.43
2017-06-27T01:56:59.331Z,9.07
2017-06-27T01:59:26.738Z,10.00
2017-06-27T02:01:54.119Z,9.50
2017-06-27T02:04:21.428Z,8.97
2017-06-27T02:06:48.845Z,9.30
2017-06-27T02:09:16.160Z,8.83
2017-06-27T02:11:43.519Z,9.40
2017-06-27T02:14:10.977Z,9.40
2017-06-27T02:16:38.305Z,8.93
2017-06-27T02:19:05.657Z,8.73
2017-06-27T02:21:33.090Z,8.90
2017-06-27T02:24:00.478Z,8.40
2017-06-27T02:26:27.853Z,8.63
2017-06-27T02:28:55.245Z,9.10
2017-06-27T02:31:22.569Z,9.00
2017-06-27T02:33:49.941Z,8.43
2017-06-27T02:36:17.324Z,8.47
2017-06-27T02:38:44.684Z,8.90
2017-06-27T02:41:12.072Z,8.87
2017-06-27T02:43:39.483Z,9.50
2017-06-27T02:46:06.795Z,8.43
2017-06-27T02:48:34.120Z,10.77
2017-06-27T02:51:01.498Z,8.70
2017-06-27T02:53:28.892Z,12.80
2017-06-27T02:55:56.278Z,8.07
2017-06-27T02:58:23.669Z,8.37
2017-06-27T03:00:50.973Z,11.50
2017-06-27T03:03:18.345Z,8.50
2017-06-27T03:05:45.793Z,9.07
2017-06-27T03:08:13.229Z,12.60
2017-06-27T03:10:40.612Z,8.80
2017-06-27T03:13:08.008Z,8.40
2017-06-27T03:15:35.373Z,10.80
2017-06-27T03:18:02.719Z,7.93
2017-06-27T03:20:30.400Z,8.70
2017-06-27T03:22:57.809Z,7.77
2017-06-27T03:25:25.167Z,7.93
2017-06-27T03:27:52.554Z,8.17
2017-06-27T03:30:19.925Z,7.47
2017-06-27T03:32:47.288Z,7.87
2017-06-27T03:35:14.719Z,9.40
2017-06-27T03:37:42.053Z,8.20
2017-06-27T03:40:09.405Z,8.57
2017-06-27T03:42:36.790Z,8.57
2017-06-27T03:45:04.152Z,8.77
2017-06-27T03:47:31.469Z,10.93
2017-06-27T03:49:58.979Z,13.77
2017-06-27T03:52:26.365Z,12.30
2017-06-27T03:54:53.786Z,11.40
2017-06-27T03:57:21.209Z,9.77
2017-06-27T03:59:48.520Z,12.97
2017-06-27T04:02:15.888Z,8.63
2017-06-27T04:04:43.249Z,11.33
2017-06-27T04:07:10.577Z,9.97
2017-06-27T04:09:37.926Z,11.57
2017-06-27T04:12:06.105Z,10.47
2017-06-27T04:14:33.432Z,10.90
2017-06-27T04:17:00.806Z,10.57
2017-06-27T04:19:28.194Z,10.73
2017-06-27T04:21:55.583Z,11.73
2017-06-27T04:24:22.905Z,9.87
2017-06-27T04:26:50.298Z,11.83
2017-06-27T04:29:17.656Z,10.23
2017-06-27T04:31:45.094Z,12.80
2017-06-27T04:34:12.534Z,11.63
2017-06-27T04:36:39.942Z,11.53
2017-06-27T04:39:07.296Z,11.27
2017-06-27T04:41:34.811Z,13.73
2017-06-27T04:44:02.192Z,11.90
2017-06-27T04:46:29.642Z,12.43
2017-06-27T04:48:57.046Z,14.70
2017-06-27T04:51:24.402Z,16.37
2017-06-27T04:53:51.803Z,14.03
2017-06-27T04:56:19.181Z,14.07
2017-06-27T04:58:46.576Z,16.33
2017-06-27T05:01:14.013Z,15.10
2017-06-27T05:03:41.385Z,14.33
2017-06-27T05:06:08.783Z,14.37
2017-06-27T05:08:36.166Z,12.30
2017-06-27T05:11:03.589Z,11.90
2017-06-27T05:13:31.363Z,13.43
2017-06-27T05:15:58.746Z,12.10
2017-06-27T05:18:26.202Z,12.83
2017-06-27T05:20:53.550Z,11.63
2017-06-27T05:23:20.885Z,11.77
2017-06-27T05:25:48.307Z,11.90
2017-06-27T05:28:15.677Z,12.23
2017-06-27T05:30:43.995Z,11.23
2017-06-27T05:33:11.365Z,11.90
2017-06-27T05:35:38.709Z,12.83
2017-06-27T05:38:06.119Z,12.30
2017-06-27T05:40:33.598Z,12.30
2017-06-27T05:43:01.032Z,12.83
2017-06-27T05:45:28.447Z,11.50
2017-06-27T05:47:55.905Z,10.07
2017-06-27T05:50:23.298Z,10.53
2017-06-27T05:52:50.650Z,11.47
2017-06-27T05:55:18.053Z,11.23
2017-06-27T05:57:45.494Z,11.27
2017-06-27T06:00:12.954Z,11.63
2017-06-27T06:02:41.196Z,11.33
2017-06-27T06:05:08.547Z,10.70
2017-06-27T06:07:35.969Z,10.73
2017-06-27T06:10:03.374Z,11.00
2017-06-27T06:12:30.741Z,10.80
2017-06-27T06:14:58.117Z,9.97
2017-06-27T06:17:25.588Z,11.60
2017-06-27T06:19:52.945Z,11.20
2017-06-27T06:22:20.350Z,11.53
2017-06-27T06:24:47.810Z,11.13
2017-06-27T06:27:15.218Z,11.50
2017-06-27T06:29:42.566Z,11.40
2017-06-27T06:32:09.990Z,11.30
2017-06-27T06:34:37.397Z,12.40
2017-06-27T06:37:04.857Z,11.77
2017-06-27T06:39:32.260Z,12.40
2017-06-27T06:41:59.645Z,12.80
2017-06-27T06:44:27.173Z,12.83
2017-06-27T06:46:54.601Z,12.80
2017-06-27T06:49:21.975Z,13.03
2017-06-27T06:51:49.373Z,13.13
2017-06-27T06:54:16.779Z,13.60
2017-06-27T06:56:44.132Z,12.43
2017-06-27T06:59:11.512Z,12.30
2017-06-27T07:01:38.984Z,13.20
2017-06-27T07:04:06.385Z,12.67
2017-06-27T07:06:33.813Z,13.37
2017-06-27T07:09:01.245Z,12.83
2017-06-27T07:11:28.645Z,14.00
2017-06-27T07:13:56.080Z,11.97
2017-06-27T07:16:23.492Z,13.30
2017-06-27T07:18:50.966Z,12.63
2017-06-27T07:21:18.342Z,13.30
2017-06-27T07:23:45.774Z,12.50
2017-06-27T07:26:13.185Z,11.77
2017-06-27T07:28:40.630Z,11.73
2017-06-27T07:31:08.039Z,12.27
2017-06-27T07:33:35.449Z,12.83
2017-06-27T07:36:02.895Z,12.37
2017-06-27T07:38:30.442Z,12.03
2017-06-27T07:40:57.785Z,12.43
2017-06-27T07:43:25.215Z,12.13
2017-06-27T07:45:52.623Z,11.87
2017-06-27T07:48:20.038Z,11.77
2017-06-27T07:50:47.444Z,11.60
2017-06-27T07:53:14.894Z,11.70
2017-06-27T07:55:42.316Z,12.53
2017-06-27T07:58:09.704Z,12.70
2017-06-27T08:00:37.201Z,12.33
2017-06-27T08:03:04.651Z,12.70
2017-06-27T08:05:32.057Z,14.23
2017-06-27T08:07:59.453Z,13.13
2017-06-27T08:10:26.878Z,13.57
2017-06-27T08:12:54.332Z,13.80
2017-06-27T08:15:21.763Z,12.73
2017-06-27T08:17:49.140Z,12.97
2017-06-27T08:20:16.533Z,13.50
2017-06-27T08:22:43.974Z,13.57
2017-06-27T08:25:11.353Z,13.70
2017-06-27T08:27:38.802Z,14.37
2017-06-27T08:30:06.199Z,13.73
2017-06-27T08:32:33.656Z,14.30
2017-06-27T08:35:01.013Z,13.90
2017-06-27T08:37:28.488Z,13.30
2017-06-27T08:39:55.954Z,13.63
2017-06-27T08:42:23.329Z,12.93
2017-06-27T08:44:50.778Z,15.30
2017-06-27T08:47:18.208Z,14.20
2017-06-27T08:49:45.553Z,14.50
2017-06-27T08:52:13.245Z,13.83
2017-06-27T08:54:40.649Z,15.07
2017-06-27T08:57:08.057Z,14.73
2017-06-27T08:59:35.572Z,14.33
2017-06-27T09:02:02.978Z,15.27
2017-06-27T09:04:30.356Z,14.90
2017-06-27T09:06:57.740Z,15.33
2017-06-27T09:09:25.087Z,16.43
2017-06-27T09:11:52.454Z,15.80
2017-06-27T09:14:19.906Z,15.90
2017-06-27T09:16:47.294Z,15.90
2017-06-27T09:19:14.677Z,17.13
2017-06-27T09:21:42.134Z,15.90
2017-06-27T09:24:09.556Z,16.77
2017-06-27T09:26:36.958Z,16.83
2017-06-27T09:29:05.179Z,17.90
2017-06-27T09:31:32.557Z,16.40
2017-06-27T09:34:00.005Z,17.10
2017-06-27T09:36:27.436Z,17.57
2017-06-27T09:38:54.872Z,16.97
2017-06-27T09:41:22.276Z,16.47
2017-06-27T09:43:49.735Z,17.43
2017-06-27T09:46:17.113Z,16.73
2017-06-27T09:48:44.838Z,17.00
2017-06-27T09:51:12.286Z,17.50
2017-06-27T09:53:39.760Z,17.27
2017-06-27T09:56:07.865Z,17.00
2017-06-27T09:58:35.296Z,16.17
2017-06-27T10:01:02.714Z,17.27
2017-06-27T10:03:30.087Z,16.83
2017-06-27T10:05:57.554Z,17.70
2017-06-27T10:08:24.975Z,16.43
2017-06-27T10:10:52.407Z,16.03
2017-06-27T10:13:19.858Z,17.87
2017-06-27T10:15:47.215Z,17.00
2017-06-27T10:18:14.641Z,17.87
2017-06-27T10:20:42.274Z,17.80
2017-06-27T10:23:09.649Z,18.47
2017-06-27T10:25:37.037Z,16.60
2017-06-27T10:28:04.458Z,17.93
2017-06-27T10:30:31.840Z,15.97
2017-06-27T10:32:59.245Z,15.30
2017-06-27T10:35:26.647Z,16.80
2017-06-27T10:37:54.002Z,16.43
2017-06-27T10:40:21.349Z,17.77
2017-06-27T10:42:48.798Z,18.10
2017-06-27T10:45:16.221Z,18.00
2017-06-27T10:47:43.657Z,18.97
2017-06-27T10:50:11.054Z,18.37
2017-06-27T10:52:38.454Z,17.10
2017-06-27T10:55:05.834Z,18.10
2017-06-27T10:57:33.382Z,18.43
2017-06-27T11:00:00.846Z,17.20
2017-06-27T11:02:29.224Z,17.87
2017-06-27T11:04:56.663Z,17.57
2017-06-27T11:07:24.011Z,17.57
2017-06-27T11:09:51.438Z,16.77
2017-06-27T11:12:18.898Z,16.47
2017-06-27T11:14:46.265Z,17.13
2017-06-27T11:17:13.640Z,15.47
2017-06-27T11:19:41.026Z,16.80
2017-06-27T11:22:08.410Z,17.30
2017-06-27T11:24:35.769Z,17.73
2017-06-27T11:27:03.139Z,17.73
2017-06-27T11:29:30.565Z,16.73
2017-06-27T11:31:57.902Z,16.20
2017-06-27T11:34:25.294Z,16.77
2017-06-27T11:36:52.792Z,15.90
2017-06-27T11:39:20.175Z,15.17
2017-06-27T11:41:47.573Z,15.13
2017-06-27T11:44:14.976Z,15.67
2017-06-27T11:46:42.333Z,16.00
2017-06-27T11:49:09.813Z,16.63
2017-06-27T11:51:37.160Z,17.80
2017-06-27T11:54:04.578Z,16.53
2017-06-27T11:56:31.998Z,16.17
2017-06-27T11:58:59.382Z,17.13
2017-06-27T12:01:32.831Z,16.50
2017-06-27T12:04:06.111Z,16.07
2017-06-27T12:06:33.566Z,15.80
2017-06-27T12:09:00.986Z,15.40
2017-06-27T12:11:28.336Z,15.40
2017-06-27T12:13:55.770Z,15.67
2017-06-27T12:16:23.204Z,14.90
2017-06-27T12:18:50.564Z,14.33
2017-06-27T12:21:17.992Z,14.50
2017-06-27T12:23:45.405Z,14.50
2017-06-27T12:26:12.823Z,13.90
2017-06-27T12:28:41.146Z,13.57
2017-06-27T12:31:08.508Z,13.53
2017-06-27T12:33:35.965Z,13.30
2017-06-27T12:36:03.398Z,14.27
2017-06-27T12:38:31.596Z,14.63
2017-06-27T12:40:59.010Z,13.40
2017-06-27T12:43:26.658Z,15.20
2017-06-27T12:45:54.043Z,14.67
2017-06-27T12:48:21.541Z,14.27
2017-06-27T12:50:48.942Z,14.07
2017-06-27T12:53:16.305Z,14.53
2017-06-27T12:55:43.739Z,14.73
2017-06-27T12:58:11.142Z,14.20
2017-06-27T13:00:38.485Z,13.93
2017-06-27T13:03:05.826Z,14.47
2017-06-27T13:05:33.199Z,13.30
2017-06-27T13:08:00.591Z,16.10
2017-06-27T13:10:27.953Z,14.10
2017-06-27T13:12:55.428Z,14.33
2017-06-27T13:15:22.858Z,13.70
2017-06-27T13:17:50.213Z,12.90
2017-06-27T13:20:17.636Z,13.40
2017-06-27T13:22:45.051Z,14.40
2017-06-27T13:25:12.494Z,13.13
2017-06-27T13:27:39.886Z,13.70
2017-06-27T13:30:07.294Z,12.03
2017-06-27T13:32:34.727Z,13.17
2017-06-27T13:35:02.149Z,12.73
2017-06-27T13:37:30.564Z,12.90
2017-06-27T13:39:57.918Z,12.80
2017-06-27T13:42:25.371Z,13.20
2017-06-27T13:44:52.742Z,13.80
2017-06-27T13:47:20.185Z,12.43
2017-06-27T13:49:47.634Z,13.40
2017-06-27T13:52:15.003Z,12.97
2017-06-27T13:54:42.486Z,13.10
2017-06-27T13:57:09.926Z,13.37
2017-06-27T13:59:37.313Z,13.20
2017-06-27T14:02:04.695Z,13.60
2017-06-27T14:04:32.174Z,13.03
2017-06-27T14:06:59.600Z,11.87
2017-06-27T14:09:27.006Z,13.37
2017-06-27T14:11:54.458Z,13.40
2017-06-27T14:14:21.850Z,13.77
2017-06-27T14:16:49.210Z,13.67
2017-06-27T14:19:16.604Z,13.73
2017-06-27T14:21:43.994Z,12.97
2017-06-27T14:24:11.420Z,13.43
2017-06-27T14:26:38.915Z,13.20
2017-06-27T14:29:06.334Z,12.93
2017-06-27T14:31:33.740Z,12.27
2017-06-27T14:34:01.178Z,14.20
2017-06-27T14:36:28.553Z,13.73
2017-06-27T14:38:55.979Z,13.30
2017-06-27T14:41:23.496Z,12.90
2017-06-27T14:43:50.886Z,11.90
2017-06-27T14:46:18.235Z,13.83
2017-06-27T14:48:45.632Z,15.00
2017-06-27T14:51:13.017Z,14.20
2017-06-27T14:53:40.402Z,14.23
2017-06-27T14:56:07.806Z,13.30
2017-06-27T14:58:35.292Z,13.10
2017-06-27T15:01:02.830Z,13.50
2017-06-27T15:03:30.268Z,13.33
2017-06-27T15:05:57.649Z,13.33
2017-06-27T15:08:25.032Z,13.93
2017-06-27T15:10:52.463Z,13.47
2017-06-27T15:13:19.912Z,14.10
2017-06-27T15:15:47.296Z,13.70
2017-06-27T15:18:14.754Z,13.60
2017-06-27T15:20:42.162Z,13.53
2017-06-27T15:23:10.169Z,12.60
2017-06-27T15:25:37.650Z,13.70
2017-06-27T15:28:05.050Z,13.60
2017-06-27T15:30:32.466Z,12.30
2017-06-27T15:32:59.848Z,13.03
2017-06-27T15:35:27.215Z,13.83
2017-06-27T15:37:54.595Z,12.63
2017-06-27T15:40:21.957Z,12.10
2017-06-27T15:42:49.386Z,13.77
2017-06-27T15:45:17.605Z,12.03
2017-06-27T15:47:44.992Z,12.43
2017-06-27T15:50:12.378Z,11.60
2017-06-27T15:52:40.170Z,12.60
2017-06-27T15:55:07.590Z,13.23
2017-06-27T15:57:34.953Z,13.37
2017-06-27T16:00:02.328Z,12.33
2017-06-27T16:02:29.735Z,11.57
2017-06-27T16:04:57.077Z,8.90
2017-06-27T16:07:24.389Z,8.33
2017-06-27T16:09:51.777Z,8.27
2017-06-27T16:12:19.127Z,8.13
2017-06-27T16:14:46.489Z,9.27
2017-06-27T16:17:13.842Z,8.83
2017-06-27T16:19:41.209Z,8.70
2017-06-27T16:22:08.594Z,8.27
2017-06-27T16:24:35.996Z,8.37
2017-06-27T16:27:03.326Z,7.63
2017-06-27T16:29:30.722Z,7.70
2017-06-27T16:31:58.164Z,7.40
2017-06-27T16:34:25.568Z,7.73
2017-06-27T16:36:52.878Z,7.77
2017-06-27T16:39:20.318Z,7.10
2017-06-27T16:41:47.662Z,7.40
2017-06-27T16:44:15.059Z,8.17
2017-06-27T16:46:42.442Z,8.00
2017-06-27T16:49:09.897Z,7.43
2017-06-27T16:51:37.261Z,7.50
2017-06-27T16:54:04.690Z,7.53
2017-06-27T16:56:32.065Z,7.03
2017-06-27T16:58:59.419Z,7.50
2017-06-27T17:01:26.869Z,7.43
2017-06-27T17:03:54.230Z,7.53
2017-06-27T17:06:21.603Z,7.53
2017-06-27T17:08:49.017Z,6.70
2017-06-27T17:11:16.337Z,6.97
2017-06-27T17:13:43.653Z,6.90
2017-06-27T17:16:11.043Z,7.10
2017-06-27T17:18:38.401Z,7.03
2017-06-27T17:21:05.753Z,6.93
2017-06-27T17:23:33.174Z,8.53
2017-06-27T17:26:00.530Z,8.20
2017-06-27T17:28:27.868Z,9.00
2017-06-27T17:30:55.235Z,8.47
2017-06-27T17:33:22.585Z,7.73
2017-06-27T17:35:49.914Z,7.40
2017-06-27T17:38:17.355Z,8.10
2017-06-27T17:40:44.745Z,7.63
2017-06-27T17:43:12.102Z,7.17
2017-06-27T17:45:39.494Z,7.10
2017-06-27T17:48:06.912Z,8.27
2017-06-27T17:50:34.266Z,7.50
2017-06-27T17:53:01.640Z,8.93
2017-06-27T17:55:29.038Z,7.77
2017-06-27T17:57:56.458Z,7.13
2017-06-27T18:00:23.874Z,8.10
2017-06-27T18:02:51.293Z,7.90
2017-06-27T18:05:18.702Z,10.47
2017-06-27T18:07:46.152Z,8.00
2017-06-27T18:10:13.507Z,9.73
2017-06-27T18:12:40.842Z,7.40
2017-06-27T18:15:08.314Z,7.57
2017-06-27T18:17:36.493Z,7.53
2017-06-27T18:20:03.949Z,9.27
2017-06-27T18:22:31.374Z,7.90
2017-06-27T18:24:58.693Z,7.97
2017-06-27T18:27:26.049Z,8.50
2017-06-27T18:29:53.431Z,9.17
2017-06-27T18:32:20.773Z,9.10
2017-06-27T18:34:48.179Z,9.17
2017-06-27T18:37:15.550Z,8.93
2017-06-27T18:39:42.946Z,10.60
2017-06-27T18:42:10.331Z,10.57
2017-06-27T18:44:37.773Z,10.17
2017-06-27T18:47:06.079Z,12.33
2017-06-27T18:49:35.396Z,13.70
2017-06-27T18:52:02.795Z,11.63
2017-06-27T18:54:30.136Z,10.40
2017-06-27T18:56:57.557Z,10.10
2017-06-27T18:59:25.086Z,10.20
2017-06-27T19:01:52.552Z,10.30
2017-06-27T19:04:19.864Z,11.00
2017-06-27T19:06:47.361Z,10.63
2017-06-27T19:09:14.711Z,13.13
2017-06-27T19:11:42.085Z,12.00
2017-06-27T19:14:09.445Z,9.00
2017-06-27T19:16:36.872Z,14.10
2017-06-27T19:19:04.266Z,10.23
2017-06-27T19:21:31.795Z,14.30
2017-06-27T19:23:59.156Z,12.53
2017-06-27T19:26:26.578Z,12.10
2017-06-27T19:28:54.000Z,11.57
2017-06-27T19:31:21.406Z,12.33
2017-06-27T19:33:48.750Z,11.90
2017-06-27T19:36:16.147Z,10.40
2017-06-27T19:38:43.476Z,11.57
2017-06-27T19:41:10.857Z,14.40
2017-06-27T19:43:38.393Z,11.70
2017-06-27T19:46:05.794Z,11.60
2017-06-27T19:48:33.120Z,10.30
2017-06-27T19:51:00.510Z,11.20
2017-06-27T19:53:28.011Z,11.50
2017-06-27T19:55:55.369Z,11.27
2017-06-27T19:58:22.729Z,11.30
2017-06-27T20:00:50.110Z,11.70
2017-06-27T20:03:17.524Z,13.40
2017-06-27T20:05:44.998Z,24.63
2017-06-27T20:08:12.326Z,19.63
2017-06-27T20:10:39.694Z,17.67
2017-06-27T20:13:07.132Z,15.97
2017-06-27T20:15:34.538Z,12.37
2017-06-27T20:18:01.902Z,12.93
2017-06-27T20:20:29.313Z,9.87
2017-06-27T20:22:56.655Z,13.47
2017-06-27T20:25:24.050Z,12.30
2017-06-27T20:27:51.434Z,11.57
2017-06-27T20:30:18.807Z,11.70
2017-06-27T20:32:46.193Z,11.00
2017-06-27T20:35:13.644Z,12.13
2017-06-27T20:37:41.013Z,11.90
2017-06-27T20:40:08.395Z,11.70
2017-06-27T20:42:35.779Z,11.53
2017-06-27T20:45:03.202Z,11.00
2017-06-27T20:47:30.521Z,11.17
2017-06-27T20:49:57.902Z,10.63
2017-06-27T20:52:25.424Z,11.40
2017-06-27T20:54:52.791Z,11.80
2017-06-27T20:57:20.217Z,11.60
2017-06-27T20:59:47.700Z,11.10
2017-06-27T21:02:15.088Z,10.73
2017-06-27T21:04:42.514Z,10.00
2017-06-27T21:07:09.842Z,10.37
2017-06-27T21:09:37.176Z,10.90
2017-06-27T21:12:04.552Z,10.67
2017-06-27T21:14:31.886Z,11.10
2017-06-27T21:16:59.260Z,11.10
2017-06-27T21:19:26.673Z,11.70
2017-06-27T21:21:54.086Z,12.47
2017-06-27T21:24:21.478Z,10.63
2017-06-27T21:26:48.866Z,11.60
2017-06-27T21:29:16.263Z,13.43
2017-06-27T21:31:43.653Z,12.57
2017-06-27T21:34:11.056Z,12.13
2017-06-27T21:36:38.522Z,11.87
2017-06-27T21:39:05.861Z,11.80
2017-06-27T21:41:33.242Z,11.67
2017-06-27T21:44:00.670Z,10.90
2017-06-27T21:46:27.992Z,12.00
2017-06-27T21:48:55.474Z,13.50
2017-06-27T21:51:22.947Z,12.23
2017-06-27T21:53:50.435Z,11.37
2017-06-27T21:56:18.534Z,11.00
2017-06-27T21:58:46.023Z,10.33
2017-06-27T22:01:13.535Z,10.70
2017-06-27T22:03:41.124Z,10.77
2017-06-27T22:06:08.687Z,13.37
2017-06-27T22:08:36.150Z,11.03
2017-06-27T22:11:04.124Z,11.07
2017-06-27T22:13:31.575Z,13.10
2017-06-27T22:15:59.102Z,11.40
2017-06-27T22:18:26.586Z,10.27
2017-06-27T22:20:54.154Z,10.37
2017-06-27T22:23:21.579Z,11.03
2017-06-27T22:25:49.106Z,10.00
2017-06-27T22:28:16.628Z,9.97
2017-06-27T22:30:44.331Z,10.50
2017-06-27T22:33:11.998Z,9.70
2017-06-27T22:35:39.505Z,9.40
2017-06-27T22:38:06.955Z,10.43
2017-06-27T22:40:34.363Z,10.30
2017-06-27T22:43:01.899Z,10.30
2017-06-27T22:45:29.312Z,10.13
2017-06-27T22:47:56.801Z,9.50
2017-06-27T22:50:24.158Z,10.33
2017-06-27T22:52:51.575Z,10.70
2017-06-27T22:55:19.049Z,10.33
2017-06-27T22:57:46.474Z,10.93
2017-06-27T23:00:13.849Z,10.70
2017-06-27T23:02:41.269Z,13.80
2017-06-27T23:05:08.698Z,11.10
2017-06-27T23:07:36.049Z,10.20
2017-06-27T23:10:03.445Z,11.30
2017-06-27T23:12:30.865Z,10.53
2017-06-27T23:14:58.240Z,14.43
2017-06-27T23:17:25.640Z,14.43
2017-06-27T23:19:53.092Z,11.93
2017-06-27T23:22:20.475Z,13.17
2017-06-27T23:24:47.923Z,12.17
2017-06-27T23:27:16.854Z,12.73
2017-06-27T23:29:44.241Z,13.37
2017-06-27T23:32:11.646Z,12.27
2017-06-27T23:34:38.986Z,12.67
2017-06-27T23:37:06.451Z,13.03
2017-06-27T23:39:33.914Z,11.27
2017-06-27T23:42:01.297Z,15.47
2017-06-27T23:44:29.189Z,11.57
2017-06-27T23:46:56.588Z,12.90
2017-06-27T23:49:23.967Z,12.17
2017-06-27T23:51:51.336Z,11.80
2017-06-27T23:54:18.831Z,11.87
2017-06-27T23:56:47.229Z,11.70
2017-06-27T23:59:14.649Z,11.13
